createdAt,value
2023-05-01T08:20:27.556Z,2.35
2023-05-01T08:21:29.964Z,1.10
2023-05-01T08:22:32.193Z,3.40
2023-05-01T08:23:34.685Z,1.10
2023-05-01T08:24:37.371Z,1.95
2023-05-01T08:25:40.222Z,2.38
2023-05-01T08:26:42.540Z,1.08
2023-05-01T08:27:44.698Z,0.98
2023-05-01T08:28:49.848Z,0.93
2023-05-01T08:29:52.010Z,1.02
2023-05-01T08:30:54.211Z,5.30
2023-05-01T08:31:57.034Z,2.25
2023-05-01T08:32:59.266Z,2.03
2023-05-01T08:34:01.405Z,1.70
2023-05-01T08:35:04.174Z,1.00
2023-05-01T08:36:08.473Z,0.93
2023-05-01T08:37:10.714Z,0.77
2023-05-01T08:38:13.393Z,1.30
2023-05-01T08:39:15.885Z,1.40
2023-05-01T08:40:18.500Z,1.08
2023-05-01T08:41:22.713Z,1.77
2023-05-01T08:42:25.143Z,2.53
2023-05-01T08:43:28.250Z,1.85
2023-05-01T08:44:31.493Z,1.10
2023-05-01T08:45:37.919Z,1.02
2023-05-01T08:46:46.912Z,5.40
2023-05-01T08:47:50.862Z,1.73
2023-05-01T08:48:57.420Z,1.73
2023-05-01T08:50:00.191Z,1.85
2023-05-01T08:51:04.158Z,2.47
2023-05-01T08:52:08.728Z,1.40
2023-05-01T08:53:12.831Z,2.47
2023-05-01T08:54:16.664Z,2.67
2023-05-01T08:55:20.953Z,1.92
2023-05-01T08:56:23.675Z,1.70
2023-05-01T08:57:27.153Z,1.70
2023-05-01T08:58:30.126Z,1.35
2023-05-01T08:59:34.866Z,1.48
2023-05-01T09:00:38.263Z,3.25
2023-05-01T09:01:41.888Z,1.10
2023-05-01T09:02:46.950Z,1.50
2023-05-01T09:03:51.248Z,1.10
2023-05-01T09:04:54.283Z,1.65
2023-05-01T09:05:57.348Z,1.52
2023-05-01T09:07:03.355Z,1.70
2023-05-01T09:08:07.230Z,2.55
2023-05-01T09:09:09.652Z,1.55
2023-05-01T09:10:12.645Z,8.77
2023-05-01T09:11:14.885Z,2.35
2023-05-01T09:12:23.845Z,2.33
2023-05-01T09:13:26.473Z,1.90
2023-05-01T09:14:29.550Z,1.45
2023-05-01T09:15:33.682Z,3.05
2023-05-01T09:16:36.213Z,3.83
2023-05-01T09:17:38.637Z,2.08
2023-05-01T09:18:41.601Z,1.15
2023-05-01T09:19:43.889Z,0.80
2023-05-01T09:20:46.798Z,1.75
2023-05-01T09:21:49.293Z,1.08
2023-05-01T09:22:51.854Z,3.30
2023-05-01T09:23:55.979Z,2.20
2023-05-01T09:24:59.210Z,2.65
2023-05-01T09:26:04.286Z,1.48
2023-05-01T09:27:06.520Z,1.35
2023-05-01T09:28:08.738Z,1.63
2023-05-01T09:29:11.547Z,2.92
2023-05-01T09:30:34.264Z,3.85
2023-05-01T09:31:36.486Z,1.65
2023-05-01T09:33:53.801Z,1.70
2023-05-01T09:35:09.965Z,2.38
2023-05-01T09:36:18.410Z,1.10
2023-05-01T09:37:27.965Z,5.70
2023-05-01T09:38:30.258Z,1.98
2023-05-01T09:39:33.854Z,1.90
2023-05-01T09:40:36.026Z,2.17
2023-05-01T09:41:52.438Z,1.77
2023-05-01T09:42:58.093Z,1.80
2023-05-01T09:44:00.370Z,3.25
2023-05-01T09:45:04.864Z,1.05
2023-05-01T09:46:12.909Z,5.68
2023-05-01T09:47:22.944Z,1.02
2023-05-01T09:48:25.199Z,2.63
2023-05-01T09:49:49.370Z,2.70
2023-05-01T09:50:51.467Z,1.17
2023-05-01T09:51:54.137Z,2.10
2023-05-01T09:52:56.314Z,0.90
2023-05-01T09:53:59.755Z,2.10
2023-05-01T09:55:17.524Z,0.90
2023-05-01T09:56:20.408Z,2.30
2023-05-01T09:57:36.233Z,1.67
2023-05-01T09:58:38.452Z,4.63
2023-05-01T09:59:40.595Z,1.65
2023-05-01T10:00:49.617Z,1.55
2023-05-01T10:01:52.523Z,1.40
2023-05-01T10:02:55.855Z,4.20
2023-05-01T10:03:58.209Z,3.30
2023-05-01T10:05:00.938Z,3.38
2023-05-01T10:06:04.343Z,2.95
2023-05-01T10:07:13.714Z,1.88
2023-05-01T10:08:16.236Z,7.45
2023-05-01T10:09:28.814Z,1.30
2023-05-01T10:10:32.351Z,1.23
2023-05-01T10:11:48.279Z,2.28
2023-05-01T10:12:51.995Z,3.80
2023-05-01T10:14:07.646Z,1.20
2023-05-01T10:15:23.923Z,3.83
2023-05-01T10:16:30.315Z,9.95
2023-05-01T10:17:33.693Z,2.22
2023-05-01T10:18:36.165Z,3.10
2023-05-01T10:19:38.538Z,2.33
2023-05-01T10:20:41.068Z,2.63
2023-05-01T10:21:43.293Z,2.00
2023-05-01T10:22:46.619Z,1.20
2023-05-01T10:23:49.049Z,4.15
2023-05-01T10:24:51.331Z,2.33
2023-05-01T10:25:57.057Z,1.25
2023-05-01T10:27:00.676Z,2.20
2023-05-01T10:28:07.501Z,3.35
2023-05-01T10:29:10.921Z,3.80
2023-05-01T10:30:13.190Z,6.90
2023-05-01T10:31:16.808Z,4.80
2023-05-01T10:32:20.494Z,3.90
2023-05-01T10:33:23.576Z,4.78
2023-05-01T10:34:28.577Z,3.45
2023-05-01T10:35:38.295Z,2.63
2023-05-01T10:36:48.566Z,4.80
2023-05-01T10:37:59.043Z,3.23
2023-05-01T10:39:01.427Z,5.05
2023-05-01T10:40:33.823Z,2.47
2023-05-01T10:42:05.812Z,3.42
2023-05-01T10:43:14.518Z,1.90
2023-05-01T10:44:24.398Z,2.75
2023-05-01T10:45:30.968Z,2.70
2023-05-01T10:46:33.429Z,2.53
2023-05-01T10:47:44.981Z,5.10
2023-05-01T10:48:54.662Z,1.52
2023-05-01T10:50:10.122Z,3.85
2023-05-01T10:51:14.434Z,2.85
2023-05-01T10:52:17.156Z,3.88
2023-05-01T10:53:19.601Z,3.47
2023-05-01T10:54:28.106Z,5.30
2023-05-01T10:55:49.747Z,4.15
2023-05-01T10:56:51.981Z,8.75
2023-05-01T10:57:56.647Z,4.00
2023-05-01T10:59:06.045Z,6.30
2023-05-01T11:00:11.671Z,16.33
2023-05-01T11:01:34.274Z,4.05
2023-05-01T11:02:36.535Z,6.72
2023-05-01T11:03:40.371Z,3.97
2023-05-01T11:04:52.420Z,4.22
2023-05-01T11:06:08.156Z,6.93
2023-05-01T11:07:20.284Z,5.53
2023-05-01T11:08:32.060Z,4.22
2023-05-01T11:09:39.079Z,4.47
2023-05-01T11:10:41.408Z,6.65
2023-05-01T11:11:50.104Z,3.38
2023-05-01T11:12:53.012Z,20.85
2023-05-01T11:13:58.098Z,1.60
2023-05-01T11:15:05.958Z,4.93
2023-05-01T11:16:38.083Z,6.88
2023-05-01T11:17:47.430Z,2.90
2023-05-01T11:18:49.678Z,2.05
2023-05-01T11:19:52.537Z,5.00
2023-05-01T11:20:54.690Z,6.55
2023-05-01T11:21:57.369Z,6.68
2023-05-01T11:22:59.900Z,4.15
2023-05-01T11:24:02.740Z,5.13
2023-05-01T11:25:18.328Z,3.47
2023-05-01T11:26:22.983Z,5.57
2023-05-01T11:27:26.189Z,5.90
2023-05-01T11:28:31.165Z,5.47
2023-05-01T11:29:37.223Z,1.80
2023-05-01T11:30:40.250Z,3.00
2023-05-01T11:31:42.578Z,3.58
2023-05-01T11:32:46.496Z,2.80
2023-05-01T11:33:48.948Z,4.35
2023-05-01T11:34:52.297Z,4.00
2023-05-01T11:36:00.222Z,8.15
2023-05-01T11:37:02.324Z,4.00
2023-05-01T11:38:04.460Z,2.65
2023-05-01T11:39:15.135Z,3.28
2023-05-01T11:40:22.191Z,5.43
2023-05-01T11:41:25.355Z,3.90
2023-05-01T11:42:27.781Z,2.58
2023-05-01T11:43:30.552Z,2.78
2023-05-01T11:44:34.194Z,5.93
2023-05-01T11:45:37.423Z,2.88
2023-05-01T11:46:40.071Z,5.82
2023-05-01T11:47:42.358Z,4.40
2023-05-01T11:48:49.452Z,3.72
2023-05-01T11:49:53.540Z,3.45
2023-05-01T11:50:55.998Z,4.95
2023-05-01T11:51:58.472Z,3.28
2023-05-01T11:53:00.679Z,11.32
2023-05-01T11:54:04.472Z,6.15
2023-05-01T11:55:07.810Z,3.28
2023-05-01T11:56:26.759Z,2.55
2023-05-01T11:57:29.641Z,6.03
2023-05-01T11:58:36.605Z,4.45
2023-05-01T11:59:40.202Z,4.22
2023-05-01T12:00:43.524Z,5.32
2023-05-01T12:01:46.864Z,3.65
2023-05-01T12:03:06.440Z,3.17
2023-05-01T12:04:09.040Z,2.90
2023-05-01T12:05:15.962Z,3.35
2023-05-01T12:06:18.090Z,4.18
2023-05-01T12:07:23.660Z,5.32
2023-05-01T12:08:25.974Z,4.28
2023-05-01T12:09:29.228Z,6.45
2023-05-01T12:10:32.626Z,4.60
2023-05-01T12:11:36.082Z,4.97
2023-05-01T12:12:38.236Z,5.18
2023-05-01T12:13:41.917Z,6.20
2023-05-01T12:14:45.571Z,10.35
2023-05-01T12:15:48.620Z,7.05
2023-05-01T12:16:51.001Z,6.88
2023-05-01T12:17:53.514Z,5.05
2023-05-01T12:18:55.916Z,4.28
2023-05-01T12:19:58.317Z,4.30
2023-05-01T12:21:01.333Z,4.05
2023-05-01T12:22:07.210Z,4.43
2023-05-01T12:23:11.849Z,3.92
2023-05-01T12:24:16.407Z,6.03
2023-05-01T12:25:19.592Z,6.32
2023-05-01T12:26:26.125Z,7.47
2023-05-01T12:27:28.301Z,9.90
2023-05-01T12:28:31.436Z,6.00
2023-05-01T12:29:41.214Z,5.53
2023-05-01T12:30:46.209Z,7.07
2023-05-01T12:31:49.979Z,3.58
2023-05-01T12:32:52.477Z,5.47
2023-05-01T12:33:59.139Z,5.97
2023-05-01T12:35:01.571Z,4.75
2023-05-01T12:36:11.725Z,6.43
2023-05-01T12:37:13.912Z,8.90
2023-05-01T12:38:17.426Z,4.90
2023-05-01T12:39:20.163Z,4.05
2023-05-01T12:40:23.001Z,5.25
2023-05-01T12:41:37.154Z,5.40
2023-05-01T12:42:39.334Z,9.43
2023-05-01T12:43:42.522Z,8.32
2023-05-01T12:44:46.872Z,7.10
2023-05-01T12:45:53.453Z,3.80
2023-05-01T12:46:59.436Z,5.88
2023-05-01T12:48:01.781Z,4.90
2023-05-01T12:49:04.924Z,6.13
2023-05-01T12:50:08.357Z,6.22
2023-05-01T12:51:17.814Z,10.13
2023-05-01T12:52:27.974Z,8.13
2023-05-01T12:53:30.458Z,5.28
2023-05-01T12:54:34.138Z,6.25
2023-05-01T12:55:48.713Z,6.68
2023-05-01T12:56:53.493Z,5.20
2023-05-01T12:57:55.856Z,6.50
2023-05-01T12:58:58.343Z,6.80
2023-05-01T13:00:02.150Z,7.35
2023-05-01T13:01:06.744Z,8.15
2023-05-01T13:02:13.434Z,10.25
2023-05-01T13:03:18.425Z,6.82
2023-05-01T13:04:24.643Z,3.53
2023-05-01T13:05:27.053Z,6.60
2023-05-01T13:06:36.033Z,6.75
2023-05-01T13:07:40.246Z,5.07
2023-05-01T13:08:42.488Z,8.48
2023-05-01T13:09:56.676Z,8.80
2023-05-01T13:11:00.395Z,6.05
2023-05-01T13:12:09.067Z,5.07
2023-05-01T13:13:11.715Z,4.78
2023-05-01T13:14:14.553Z,5.15
2023-05-01T13:15:21.092Z,7.93
2023-05-01T13:16:26.391Z,5.40
2023-05-01T13:17:30.232Z,4.72
2023-05-01T13:18:34.294Z,5.28
2023-05-01T13:19:36.952Z,4.50
2023-05-01T13:20:39.635Z,4.45
2023-05-01T13:21:48.297Z,7.55
2023-05-01T13:22:50.706Z,7.30
2023-05-01T13:23:54.693Z,5.43
2023-05-01T13:24:57.515Z,7.72
2023-05-01T13:26:00.164Z,4.43
2023-05-01T13:27:05.168Z,4.60
2023-05-01T13:28:11.232Z,3.78
2023-05-01T13:29:15.505Z,5.28
2023-05-01T13:30:22.053Z,2.72
2023-05-01T13:31:26.173Z,4.72
2023-05-01T13:32:28.579Z,6.97
2023-05-01T13:33:32.800Z,4.70
2023-05-01T13:34:36.610Z,3.78
2023-05-01T13:35:40.545Z,4.40
2023-05-01T13:36:44.358Z,4.90
2023-05-01T13:37:46.535Z,5.05
2023-05-01T13:38:51.662Z,7.97
2023-05-01T13:39:59.011Z,7.10
2023-05-01T13:41:01.532Z,5.28
2023-05-01T13:42:04.224Z,7.00
2023-05-01T13:43:15.881Z,7.70
2023-05-01T13:44:18.937Z,5.45
2023-05-01T13:45:21.441Z,4.05
2023-05-01T13:46:28.982Z,6.05
2023-05-01T13:47:31.223Z,5.18
2023-05-01T13:48:33.592Z,4.20
2023-05-01T13:49:40.558Z,5.72
2023-05-01T13:50:42.904Z,4.95
2023-05-01T13:51:46.701Z,4.18
2023-05-01T13:52:48.926Z,7.68
2023-05-01T13:53:53.678Z,4.05
2023-05-01T13:54:57.053Z,3.65
2023-05-01T13:55:59.261Z,4.18
2023-05-01T13:57:01.501Z,5.20
2023-05-01T13:58:03.757Z,3.05
2023-05-01T13:59:06.488Z,8.05
2023-05-01T14:00:10.774Z,2.97
2023-05-01T14:01:16.412Z,5.20
2023-05-01T14:02:24.419Z,3.65
2023-05-01T14:03:27.211Z,3.80
2023-05-01T14:04:29.649Z,4.68
2023-05-01T14:05:31.872Z,4.38
2023-05-01T14:06:36.773Z,6.47
2023-05-01T14:07:47.655Z,4.97
2023-05-01T14:08:51.410Z,7.55
2023-05-01T14:09:55.136Z,5.35
2023-05-01T14:10:58.987Z,3.97
2023-05-01T14:12:02.541Z,5.82
2023-05-01T14:13:05.191Z,6.90
2023-05-01T14:14:07.654Z,7.07
2023-05-01T14:15:12.387Z,7.25
2023-05-01T14:16:23.222Z,5.97
2023-05-01T14:17:31.716Z,7.15
2023-05-01T14:18:35.270Z,6.82
2023-05-01T14:19:38.572Z,6.93
2023-05-01T14:20:42.393Z,10.90
2023-05-01T14:21:44.935Z,6.72
2023-05-01T14:22:48.733Z,4.05
2023-05-01T14:23:53.085Z,5.85
2023-05-01T14:24:55.357Z,11.10
2023-05-01T14:25:57.631Z,6.90
2023-05-01T14:27:00.820Z,4.68
2023-05-01T14:28:11.774Z,6.90
2023-05-01T14:29:22.947Z,6.53
2023-05-01T14:30:29.610Z,10.23
2023-05-01T14:31:31.985Z,12.02
2023-05-01T14:32:42.299Z,7.38
2023-05-01T14:33:44.938Z,13.18
2023-05-01T14:34:47.124Z,7.32
2023-05-01T14:35:50.879Z,6.13
2023-05-01T14:36:55.934Z,7.28
2023-05-01T14:38:07.107Z,10.20
2023-05-01T14:40:13.277Z,6.53
2023-05-01T14:41:17.370Z,7.63
2023-05-01T14:42:19.679Z,5.85
2023-05-01T14:43:22.357Z,5.22
2023-05-01T14:44:28.378Z,5.55
2023-05-01T14:45:31.050Z,4.72
2023-05-01T14:46:35.764Z,6.13
2023-05-01T14:47:41.337Z,2.45
2023-05-01T14:48:43.625Z,6.68
2023-05-01T14:49:49.855Z,5.00
2023-05-01T14:50:52.952Z,4.80
2023-05-01T14:51:55.411Z,7.97
2023-05-01T14:52:58.883Z,5.05
2023-05-01T14:54:01.153Z,6.53
2023-05-01T14:55:04.500Z,4.35
2023-05-01T14:56:07.496Z,3.22
2023-05-01T14:57:09.616Z,5.72
2023-05-01T14:58:11.812Z,3.70
2023-05-01T14:59:14.091Z,9.07
2023-05-01T15:00:17.139Z,8.20
2023-05-01T15:01:20.217Z,6.07
2023-05-01T15:02:23.688Z,8.27
2023-05-01T15:03:27.473Z,4.93
2023-05-01T15:04:29.766Z,6.47
2023-05-01T15:05:32.294Z,5.63
2023-05-01T15:06:34.655Z,3.95
2023-05-01T15:07:38.339Z,6.57
2023-05-01T15:08:40.478Z,8.98
2023-05-01T15:09:43.041Z,4.18
2023-05-01T15:10:45.878Z,4.45
2023-05-01T15:11:48.008Z,9.95
2023-05-01T15:12:50.139Z,7.22
2023-05-01T15:13:52.729Z,5.15
2023-05-01T15:14:54.944Z,5.35
2023-05-01T15:15:57.302Z,8.70
2023-05-01T15:16:59.434Z,8.45
2023-05-01T15:18:02.440Z,4.32
2023-05-01T15:19:06.187Z,6.10
2023-05-01T15:20:09.931Z,4.68
2023-05-01T15:21:12.052Z,4.22
2023-05-01T15:22:14.201Z,3.72
2023-05-01T15:23:16.683Z,5.57
2023-05-01T15:24:19.741Z,4.85
2023-05-01T15:25:21.863Z,5.07
2023-05-01T15:26:23.986Z,4.00
2023-05-01T15:27:26.093Z,3.20
2023-05-01T15:28:29.073Z,4.18
2023-05-01T15:29:31.250Z,3.97
2023-05-01T15:30:33.378Z,6.68
2023-05-01T15:31:35.757Z,4.60
2023-05-01T15:32:38.452Z,4.35
2023-05-01T15:33:40.971Z,8.13
2023-05-01T15:34:44.590Z,10.18
2023-05-01T15:35:48.723Z,6.45
2023-05-01T15:36:51.098Z,7.03
2023-05-01T15:37:54.367Z,4.28
2023-05-01T15:38:56.465Z,6.18
2023-05-01T15:39:59.607Z,7.25
2023-05-01T15:41:01.776Z,6.18
2023-05-01T15:42:04.127Z,5.60
2023-05-01T15:43:06.635Z,7.70
2023-05-01T15:44:10.992Z,4.30
2023-05-01T15:45:13.096Z,5.70
2023-05-01T15:46:15.659Z,4.65
2023-05-01T15:47:17.941Z,5.75
2023-05-01T15:48:20.164Z,3.72
2023-05-01T15:49:22.487Z,6.13
2023-05-01T15:50:27.047Z,3.05
2023-05-01T15:51:31.901Z,7.25
2023-05-01T15:52:34.096Z,4.82
2023-05-01T15:53:36.196Z,3.28
2023-05-01T15:54:38.374Z,8.55
2023-05-01T15:55:40.508Z,4.05
2023-05-01T15:56:42.619Z,2.78
2023-05-01T15:57:46.917Z,6.40
2023-05-01T15:58:49.015Z,5.40
2023-05-01T15:59:54.058Z,5.90
2023-05-01T16:00:56.539Z,6.18
2023-05-01T16:01:58.884Z,9.63
2023-05-01T16:03:01.879Z,4.43
2023-05-01T16:04:04.817Z,7.72
2023-05-01T16:05:08.616Z,8.07
2023-05-01T16:06:12.259Z,6.20
2023-05-01T16:07:15.090Z,5.35
2023-05-01T16:08:18.668Z,4.70
2023-05-01T16:09:22.641Z,6.18
2023-05-01T16:10:25.605Z,10.20
2023-05-01T16:11:27.880Z,5.60
2023-05-01T16:12:30.226Z,8.70
2023-05-01T16:13:36.829Z,5.38
2023-05-01T16:14:41.084Z,6.53
2023-05-01T16:15:43.250Z,7.97
2023-05-01T16:16:45.459Z,10.70
2023-05-01T16:17:49.137Z,5.60
2023-05-01T16:18:55.237Z,7.13
2023-05-01T16:19:58.148Z,7.93
2023-05-01T16:21:01.012Z,6.45
2023-05-01T16:22:05.590Z,7.97
2023-05-01T16:23:08.655Z,6.53
2023-05-01T16:24:11.265Z,5.28
2023-05-01T16:25:13.971Z,10.52
2023-05-01T16:26:22.432Z,8.60
2023-05-01T16:27:24.704Z,9.02
2023-05-01T16:28:27.187Z,5.78
2023-05-01T16:29:32.064Z,6.35
2023-05-01T16:30:34.240Z,8.90
2023-05-01T16:31:41.102Z,9.75
2023-05-01T16:32:44.842Z,8.23
2023-05-01T16:33:49.264Z,9.40
2023-05-01T16:34:51.402Z,8.02
2023-05-01T16:35:53.854Z,8.18
2023-05-01T16:36:56.548Z,5.93
2023-05-01T16:38:00.847Z,4.53
2023-05-01T16:39:03.345Z,4.85
2023-05-01T16:40:08.217Z,3.47
2023-05-01T16:41:15.126Z,9.60
2023-05-01T16:42:17.280Z,10.50
2023-05-01T16:43:22.115Z,8.70
2023-05-01T16:44:24.309Z,8.60
2023-05-01T16:45:27.262Z,7.78
2023-05-01T16:46:31.086Z,8.82
2023-05-01T16:47:33.526Z,9.32
2023-05-01T16:48:36.413Z,9.20
2023-05-01T16:49:41.979Z,7.68
2023-05-01T16:50:44.355Z,9.75
2023-05-01T16:51:46.766Z,4.35
2023-05-01T16:52:49.217Z,5.45
2023-05-01T16:53:52.752Z,7.03
2023-05-01T16:54:56.413Z,9.88
2023-05-01T16:55:58.545Z,8.70
2023-05-01T16:57:03.260Z,11.15
2023-05-01T16:58:06.916Z,7.68
2023-05-01T16:59:09.174Z,14.02
2023-05-01T17:00:12.386Z,6.78
2023-05-01T17:01:14.672Z,6.72
2023-05-01T17:02:17.091Z,11.50
2023-05-01T17:03:19.480Z,8.40
2023-05-01T17:04:21.813Z,6.90
2023-05-01T17:05:24.251Z,7.13
2023-05-01T17:06:26.758Z,6.25
2023-05-01T17:07:29.689Z,5.25
2023-05-01T17:08:32.005Z,9.32
2023-05-01T17:09:36.030Z,12.32
2023-05-01T17:10:38.511Z,5.82
2023-05-01T17:11:41.023Z,5.18
2023-05-01T17:12:43.795Z,7.82
2023-05-01T17:13:46.011Z,10.85
2023-05-01T17:14:48.320Z,4.18
2023-05-01T17:15:52.637Z,5.85
2023-05-01T17:16:55.025Z,9.13
2023-05-01T17:17:57.667Z,4.40
2023-05-01T17:19:01.513Z,8.32
2023-05-01T17:20:04.783Z,5.88
2023-05-01T17:21:07.222Z,7.65
2023-05-01T17:22:09.464Z,8.00
2023-05-01T17:23:11.816Z,7.03
2023-05-01T17:24:14.113Z,9.52
2023-05-01T17:25:18.158Z,7.43
2023-05-01T17:26:21.489Z,11.52
2023-05-01T17:27:23.847Z,6.85
2023-05-01T17:28:26.297Z,8.30
2023-05-01T17:29:28.493Z,8.27
2023-05-01T17:30:30.828Z,9.57
2023-05-01T17:31:33.448Z,7.38
2023-05-01T17:32:37.470Z,7.45
2023-05-01T17:33:40.046Z,5.75
2023-05-01T17:34:42.186Z,7.53
2023-05-01T17:35:44.456Z,9.45
2023-05-01T17:36:46.753Z,10.35
2023-05-01T17:37:49.008Z,5.00
2023-05-01T17:38:51.400Z,4.63
2023-05-01T17:39:53.791Z,4.90
2023-05-01T17:40:57.513Z,9.25
2023-05-01T17:41:59.681Z,9.77
2023-05-01T17:43:02.848Z,6.15
2023-05-01T17:44:05.190Z,9.48
2023-05-01T17:45:10.324Z,8.50
2023-05-01T17:46:14.197Z,5.78
2023-05-01T17:47:16.403Z,5.30
2023-05-01T17:48:19.614Z,8.27
2023-05-01T17:49:22.840Z,6.10
2023-05-01T17:50:25.040Z,7.90
2023-05-01T17:51:27.416Z,4.28
2023-05-01T17:52:29.954Z,10.27
2023-05-01T17:53:32.286Z,11.55
2023-05-01T17:54:34.476Z,7.07
2023-05-01T17:55:38.438Z,8.38
2023-05-01T17:56:42.415Z,10.50
2023-05-01T17:57:44.621Z,8.02
2023-05-01T17:58:47.144Z,12.55
2023-05-01T17:59:49.315Z,6.80
2023-05-01T18:00:51.776Z,5.88
2023-05-01T18:01:54.064Z,9.38
2023-05-01T18:02:56.471Z,11.18
2023-05-01T18:03:59.428Z,18.63
2023-05-01T18:05:01.716Z,11.18
2023-05-01T18:06:04.550Z,9.38
2023-05-01T18:07:07.006Z,19.95
2023-05-01T18:08:09.135Z,32.67
2023-05-01T18:09:11.406Z,28.23
2023-05-01T18:10:13.600Z,27.73
2023-05-01T18:11:15.924Z,15.25
2023-05-01T18:12:19.745Z,14.18
2023-05-01T18:13:27.881Z,14.73
2023-05-01T18:14:30.208Z,17.70
2023-05-01T18:15:32.292Z,15.18
2023-05-01T18:16:34.571Z,10.55
2023-05-01T18:17:36.849Z,10.25
2023-05-01T18:18:39.076Z,8.77
2023-05-01T18:19:41.517Z,8.30
2023-05-01T18:20:43.602Z,5.03
2023-05-01T18:21:45.701Z,8.40
2023-05-01T18:22:47.868Z,9.35
2023-05-01T18:23:50.425Z,5.45
2023-05-01T18:24:52.590Z,4.78
2023-05-01T18:25:56.106Z,9.73
2023-05-01T18:27:00.018Z,8.55
2023-05-01T18:28:03.588Z,8.30
2023-05-01T18:29:05.730Z,12.07
2023-05-01T18:30:08.886Z,7.78
2023-05-01T18:31:11.193Z,9.23
2023-05-01T18:32:14.094Z,6.88
2023-05-01T18:33:16.718Z,8.40
2023-05-01T18:34:19.587Z,10.25
2023-05-01T18:35:22.040Z,7.03
2023-05-01T18:36:24.276Z,7.13
2023-05-01T18:37:26.481Z,6.90
2023-05-01T18:38:28.934Z,9.07
2023-05-01T18:39:31.313Z,6.80
2023-05-01T18:40:33.561Z,10.60
2023-05-01T18:41:35.765Z,9.65
2023-05-01T18:42:38.036Z,13.65
2023-05-01T18:43:41.628Z,7.75
2023-05-01T18:44:44.042Z,8.07
2023-05-01T18:45:46.233Z,13.30
2023-05-01T18:46:48.500Z,7.07
2023-05-01T18:47:50.862Z,11.90
2023-05-01T18:48:54.268Z,8.38
2023-05-01T18:49:56.502Z,14.10
2023-05-01T18:51:08.417Z,7.90
2023-05-01T18:52:11.324Z,15.40
2023-05-01T18:53:13.825Z,6.93
2023-05-01T18:54:17.118Z,9.35
2023-05-01T18:55:19.411Z,8.73
2023-05-01T18:56:24.281Z,10.80
2023-05-01T18:57:28.730Z,7.72
2023-05-01T18:58:31.022Z,7.72
2023-05-01T18:59:34.614Z,7.63
2023-05-01T19:00:36.817Z,7.78
2023-05-01T19:01:39.039Z,7.28
2023-05-01T19:02:42.450Z,12.70
2023-05-01T19:03:44.557Z,9.98
2023-05-01T19:05:52.033Z,8.65
2023-05-01T19:06:54.219Z,9.57
2023-05-01T19:08:01.855Z,6.30
2023-05-01T19:09:04.387Z,6.65
2023-05-01T19:10:07.730Z,8.07
2023-05-01T19:11:10.102Z,8.75
2023-05-01T19:12:12.284Z,6.75
2023-05-01T19:13:14.403Z,8.50
2023-05-01T19:14:16.839Z,5.25
2023-05-01T19:15:20.455Z,7.32
2023-05-01T19:16:22.969Z,8.00
2023-05-01T19:17:25.162Z,8.10
2023-05-01T19:18:27.232Z,9.00
2023-05-01T19:19:30.873Z,12.25
2023-05-01T19:20:33.228Z,7.18
2023-05-01T19:21:35.981Z,6.22
2023-05-01T19:22:38.471Z,10.20
2023-05-01T19:23:43.056Z,10.18
2023-05-01T19:24:45.147Z,6.70
2023-05-01T19:25:47.322Z,10.25
2023-05-01T19:26:49.494Z,7.78
2023-05-01T19:27:52.138Z,10.77
2023-05-01T19:28:54.648Z,9.65
2023-05-01T19:30:00.930Z,10.02
2023-05-01T19:31:05.631Z,14.52
2023-05-01T19:32:07.940Z,10.32
2023-05-01T19:33:10.198Z,9.27
2023-05-01T19:34:12.664Z,8.93
2023-05-01T19:35:15.069Z,8.35
2023-05-01T19:36:17.156Z,12.02
2023-05-01T19:37:23.559Z,12.90
2023-05-01T19:38:25.941Z,12.82
2023-05-01T19:39:31.947Z,10.18
2023-05-01T19:40:34.166Z,7.90
2023-05-01T19:41:36.303Z,10.32
2023-05-01T19:42:38.486Z,9.88
2023-05-01T19:43:40.674Z,9.30
2023-05-01T19:44:42.785Z,9.63
2023-05-01T19:45:45.007Z,9.30
2023-05-01T19:46:49.174Z,11.10
2023-05-01T19:47:51.392Z,12.75
2023-05-01T19:48:53.572Z,9.25
2023-05-01T19:49:56.042Z,9.73
2023-05-01T19:50:58.207Z,8.63
2023-05-01T19:52:00.590Z,12.35
2023-05-01T19:53:05.239Z,10.85
2023-05-01T19:54:07.419Z,8.23
2023-05-01T19:55:10.954Z,7.25
2023-05-01T19:56:13.053Z,9.50
2023-05-01T19:57:16.446Z,7.93
2023-05-01T19:58:18.588Z,14.57
2023-05-01T19:59:20.779Z,9.02
2023-05-01T20:00:23.015Z,11.93
2023-05-01T20:01:25.232Z,9.68
2023-05-01T20:02:29.583Z,7.93
2023-05-01T20:03:31.886Z,9.05
2023-05-01T20:04:34.190Z,16.33
2023-05-01T20:05:37.301Z,12.45
2023-05-01T20:06:39.443Z,11.70
2023-05-01T20:07:41.674Z,6.35
2023-05-01T20:08:44.427Z,9.70
2023-05-01T20:09:47.091Z,9.30
2023-05-01T20:10:49.231Z,13.13
2023-05-01T20:11:51.349Z,10.15
2023-05-01T20:12:53.499Z,9.55
2023-05-01T20:13:55.683Z,14.77
2023-05-01T20:15:00.493Z,7.60
2023-05-01T20:16:03.016Z,9.15
2023-05-01T20:17:07.252Z,12.75
2023-05-01T20:18:13.252Z,12.57
2023-05-01T20:19:17.737Z,14.50
2023-05-01T20:20:20.082Z,13.00
2023-05-01T20:21:22.218Z,9.00
2023-05-01T20:22:24.304Z,13.02
2023-05-01T20:23:26.466Z,12.13
2023-05-01T20:24:28.893Z,18.77
2023-05-01T20:25:30.981Z,10.00
2023-05-01T20:26:33.231Z,11.57
2023-05-01T20:27:35.698Z,18.67
2023-05-01T20:28:37.826Z,12.82
2023-05-01T20:29:41.041Z,9.27
2023-05-01T20:30:44.715Z,13.40
2023-05-01T20:31:46.892Z,13.18
2023-05-01T20:32:49.041Z,10.93
2023-05-01T20:33:52.611Z,14.20
2023-05-01T20:34:55.525Z,12.32
2023-05-01T20:35:59.440Z,15.63
2023-05-01T20:37:01.555Z,12.40
2023-05-01T20:38:04.667Z,12.70
2023-05-01T20:39:06.990Z,16.48
2023-05-01T20:40:11.668Z,15.23
2023-05-01T20:41:13.908Z,12.85
2023-05-01T20:42:16.013Z,13.57
2023-05-01T20:43:18.105Z,15.32
2023-05-01T20:44:20.257Z,12.15
2023-05-01T20:45:22.424Z,14.68
2023-05-01T20:46:24.884Z,12.18
2023-05-01T20:47:27.079Z,12.68
2023-05-01T20:48:29.171Z,9.77
2023-05-01T20:49:35.582Z,15.68
2023-05-01T20:50:37.734Z,17.42
2023-05-01T20:51:40.247Z,16.70
2023-05-01T20:52:42.396Z,12.55
2023-05-01T20:53:44.499Z,12.60
2023-05-01T20:54:46.648Z,12.27
2023-05-01T20:55:50.011Z,12.25
2023-05-01T20:56:52.137Z,14.02
2023-05-01T20:57:54.329Z,11.50
2023-05-01T20:58:56.504Z,14.05
2023-05-01T21:00:01.949Z,12.60
2023-05-01T21:01:05.114Z,11.45
2023-05-01T21:02:07.489Z,17.17
2023-05-01T21:03:09.976Z,16.05
2023-05-01T21:04:13.379Z,12.38
2023-05-01T21:05:17.237Z,10.77
2023-05-01T21:06:19.418Z,10.88
2023-05-01T21:07:21.899Z,14.45
2023-05-01T21:08:25.073Z,10.50
2023-05-01T21:09:27.219Z,12.65
2023-05-01T21:10:29.349Z,11.90
2023-05-01T21:11:31.706Z,9.38
2023-05-01T21:12:33.877Z,13.35
2023-05-01T21:13:36.148Z,11.55
2023-05-01T21:14:38.684Z,10.20
2023-05-01T21:15:41.474Z,10.68
2023-05-01T21:16:43.650Z,9.07
2023-05-01T21:17:46.550Z,14.93
2023-05-01T21:18:49.134Z,7.65
2023-05-01T21:19:51.340Z,10.85
2023-05-01T21:21:01.667Z,8.95
2023-05-01T21:22:08.041Z,11.40
2023-05-01T21:23:11.247Z,13.45
2023-05-01T21:24:18.649Z,11.23
2023-05-01T21:25:27.523Z,11.85
2023-05-01T21:26:33.267Z,14.70
2023-05-01T21:27:39.109Z,10.68
2023-05-01T21:28:41.432Z,10.02
2023-05-01T21:29:43.615Z,13.07
2023-05-01T21:30:48.873Z,15.90
2023-05-01T21:31:51.289Z,12.70
2023-05-01T21:32:53.699Z,12.73
2023-05-01T21:33:58.656Z,10.60
2023-05-01T21:35:01.049Z,8.00
2023-05-01T21:36:05.242Z,12.05
2023-05-01T21:37:08.471Z,11.13
2023-05-01T21:38:10.875Z,12.88
2023-05-01T21:39:13.258Z,8.48
2023-05-01T21:40:15.991Z,9.10
2023-05-01T21:41:18.214Z,11.30
2023-05-01T21:42:20.514Z,7.28
2023-05-01T21:43:22.895Z,15.52
2023-05-01T21:44:29.843Z,10.93
2023-05-01T21:45:34.355Z,12.15
2023-05-01T21:46:38.720Z,11.15
2023-05-01T21:47:44.260Z,11.75
2023-05-01T21:48:50.085Z,13.60
2023-05-01T21:49:56.928Z,11.32
2023-05-01T21:51:00.647Z,10.50
2023-05-01T21:52:04.434Z,10.82
2023-05-01T21:53:07.354Z,10.25
2023-05-01T21:54:09.531Z,15.02
2023-05-01T21:55:17.220Z,10.90
2023-05-01T21:56:22.570Z,10.43
2023-05-01T21:57:24.723Z,11.82
2023-05-01T21:58:29.200Z,12.73
2023-05-01T21:59:35.957Z,10.27
2023-05-01T22:00:39.692Z,8.25
2023-05-01T22:01:41.883Z,12.38
2023-05-01T22:02:45.932Z,8.63
2023-05-01T22:03:50.005Z,8.10
2023-05-01T22:04:55.026Z,12.90
2023-05-01T22:05:57.966Z,11.48
2023-05-01T22:07:01.729Z,12.30
2023-05-01T22:08:05.648Z,14.10
2023-05-01T22:09:08.066Z,11.90
2023-05-01T22:10:12.647Z,14.95
2023-05-01T22:11:15.180Z,15.25
2023-05-01T22:12:17.407Z,12.82
2023-05-01T22:13:19.695Z,11.13
2023-05-01T22:14:22.009Z,12.85
2023-05-01T22:15:24.364Z,11.10
2023-05-01T22:16:26.885Z,9.65
2023-05-01T22:17:29.189Z,13.20
2023-05-01T22:18:31.499Z,12.15
2023-05-01T22:19:33.703Z,11.27
2023-05-01T22:20:35.819Z,11.48
2023-05-01T22:21:38.654Z,17.80
2023-05-01T22:22:42.373Z,11.70
2023-05-01T22:23:45.997Z,11.07
2023-05-01T22:24:48.228Z,11.63
2023-05-01T22:25:50.480Z,11.35
2023-05-01T22:26:52.668Z,8.85
2023-05-01T22:27:54.964Z,10.30
2023-05-01T22:28:57.470Z,9.95